LDSB/BWK METAR and TAF weather

Enter ICAO airport designator
Station Type Date Time Source
LDSB METAR 2021/06/22 14:00 UTC NOAA

LDSB 221400Z 14008KT CAVOK 30/14 Q1015


Station Type Date Time Source
LDSB Decoded METAR 2021/06/22 14:00 UTC NOAA

Brac, Croatia (LDSB) 43-17-09N 016-40-47E
Jun 22, 2021 - 10:00 AM EDT / 2021.06.22 1400 UTC
Wind: from the SE (140 degrees) at 9 MPH (8 KT):0
Visibility: greater than 7 mile(s):0
Temperature: 86 F (30 C)
Dew Point: 57 F (14 C)
Relative Humidity: 37%
Pressure (altimeter): 29.97 in. Hg (1015 hPa)
ob: LDSB 221400Z 14008KT CAVOK 30/14 Q1015
cycle: 14

Station Type Date Time Source
LDSB TAF 2021/06/22 15:03 UTC NOAA

TAF
AMD TAF
AMD LDSB 221501Z 2215/2312 CNL

Example: see airport list